Time;durP1;ratioP1;P1;durP2;ratioP2;P2;SDS_P1;SDS_P2;PMS_P1;PMS_P2;Temp;Humidity;BMP_temperature;BMP_pressure;BME280_temperature;BME280_humidity;BME280_pressure;Samples;Min_cycle;Max_cycle;Signal;HPM_P1;HPM_P2
2021/11/13 00:00:39;;;;;;;7.12;1.30;;;;;;;20.06;45.40;99832.72;4418333;32;20073;-70
2021/11/13 00:03:07;;;;;;;9.40;1.52;;;;;;;20.17;45.61;99832.69;4419123;32;20099;-70
2021/11/13 00:05:33;;;;;;;8.02;1.30;;;;;;;20.18;45.80;99831.38;4424057;32;20406;-70
2021/11/13 00:07:58;;;;;;;10.13;1.40;;;;;;;20.33;45.60;99834.69;4421545;32;20025;-70
2021/11/13 00:10:27;;;;;;;14.30;1.65;;;;;;;20.67;44.96;99833.97;4420065;32;20142;-70
2021/11/13 00:12:55;;;;;;;7.43;1.60;;;;;;;20.56;45.19;99824.69;4419709;32;20048;-69
2021/11/13 00:15:22;;;;;;;6.43;1.05;;;;;;;20.74;44.93;99821.94;4418771;32;20407;-69
2021/11/13 00:17:49;;;;;;;11.52;1.45;;;;;;;20.51;45.22;99826.28;4420346;32;20034;-69
2021/11/13 00:20:16;;;;;;;7.95;1.35;;;;;;;20.28;46.15;99824.06;4418599;32;20081;-69
2021/11/13 00:22:43;;;;;;;8.88;1.00;;;;;;;20.54;45.56;99835.84;4422774;32;20025;-69
2021/11/13 00:25:10;;;;;;;5.40;1.00;;;;;;;20.74;45.31;99839.09;4422069;32;20029;-69
2021/11/13 00:27:36;;;;;;;5.28;1.12;;;;;;;20.61;45.69;99833.22;4420705;32;20090;-69
2021/11/13 00:30:04;;;;;;;5.50;1.33;;;;;;;20.68;45.55;99855.50;4419304;32;20042;-69
2021/11/13 00:32:30;;;;;;;8.85;1.17;;;;;;;20.39;46.07;99844.00;4421704;32;20030;-69
2021/11/13 00:34:56;;;;;;;5.05;0.77;;;;;;;20.01;46.35;99853.50;4423622;32;20088;-69
2021/11/13 00:37:22;;;;;;;8.98;1.27;;;;;;;20.08;46.26;99853.72;4424571;32;20022;-69
2021/11/13 00:39:48;;;;;;;5.82;1.30;;;;;;;19.92;46.28;99860.28;4417344;32;20105;-69
2021/11/13 00:42:14;;;;;;;7.53;1.00;;;;;;;20.08;46.31;99859.44;4422156;32;20059;-69
2021/11/13 00:44:40;;;;;;;8.00;1.40;;;;;;;19.68;47.42;99868.66;4421717;32;20378;-69
2021/11/13 00:47:06;;;;;;;8.35;1.58;;;;;;;19.64;47.54;99862.44;4419596;32;20034;-69
2021/11/13 00:49:32;;;;;;;4.32;0.90;;;;;;;19.36;48.01;99870.25;4419366;32;20042;-69
2021/11/13 00:51:58;;;;;;;8.38;1.05;;;;;;;19.74;47.44;99877.97;4421475;32;20055;-69
2021/11/13 00:54:24;;;;;;;9.05;1.42;;;;;;;19.61;47.18;99889.16;4420734;32;20065;-69
2021/11/13 00:56:51;;;;;;;8.65;1.60;;;;;;;19.83;47.19;99887.03;4402935;32;20501;-69
2021/11/13 00:59:18;;;;;;;12.95;1.35;;;;;;;19.28;47.99;99892.03;4418485;32;20104;-69
2021/11/13 01:01:44;;;;;;;6.12;1.52;;;;;;;19.71;46.91;99881.88;4421067;32;20512;-69
2021/11/13 01:04:10;;;;;;;7.03;1.40;;;;;;;19.52;47.28;99903.69;4421217;32;20105;-69
2021/11/13 01:06:36;;;;;;;9.38;1.52;;;;;;;19.87;46.64;99903.09;4420188;32;20585;-69
2021/11/13 01:09:03;;;;;;;12.13;1.85;;;;;;;19.80;46.48;99907.28;4421833;32;20481;-69
2021/11/13 01:11:29;;;;;;;12.30;1.75;;;;;;;19.90;46.38;99910.63;4420747;32;20557;-69
2021/11/13 01:13:56;;;;;;;9.63;1.85;;;;;;;19.58;46.58;99902.37;4421603;32;20101;-69
2021/11/13 01:16:23;;;;;;;10.85;1.58;;;;;;;19.31;46.84;99902.41;4418241;32;20654;-69
2021/11/13 01:18:50;;;;;;;6.75;1.00;;;;;;;19.31;46.33;99897.50;4421175;32;20022;-69
2021/11/13 01:21:16;;;;;;;10.55;1.25;;;;;;;18.95;46.53;99898.47;4423502;32;20080;-69
2021/11/13 01:23:44;;;;;;;7.10;1.15;;;;;;;19.01;46.28;99910.66;4422314;32;20112;-69
2021/11/13 01:26:09;;;;;;;8.90;1.48;;;;;;;19.18;45.86;99910.69;4420089;32;20041;-69
2021/11/13 01:28:35;;;;;;;7.00;1.25;;;;;;;19.47;45.31;99910.19;4420154;32;20059;-69
2021/11/13 01:31:01;;;;;;;6.22;1.10;;;;;;;19.13;45.97;99931.41;4420447;32;20460;-69
2021/11/13 01:33:28;;;;;;;10.68;1.25;;;;;;;19.41;45.69;99918.75;4420621;32;20355;-69
2021/11/13 01:35:54;;;;;;;14.82;1.60;;;;;;;19.35;46.09;99926.53;4422515;32;20155;-69
2021/11/13 01:38:20;;;;;;;11.63;1.40;;;;;;;19.26;46.00;99934.53;4417722;32;20474;-69
2021/11/13 01:40:46;;;;;;;13.25;1.73;;;;;;;19.20;46.62;99925.19;4422917;32;20726;-69
2021/11/13 01:43:12;;;;;;;11.75;0.90;;;;;;;19.31;46.65;99940.28;4418948;32;20160;-70
2021/11/13 01:45:38;;;;;;;8.88;1.20;;;;;;;19.39;46.38;99938.44;4419917;32;21632;-70
2021/11/13 01:48:04;;;;;;;8.52;1.67;;;;;;;19.15;46.92;99941.00;4420773;32;20121;-69
2021/11/13 01:50:40;;;;;;;6.50;1.45;;;;;;;19.17;47.06;99951.88;4422302;32;20061;-69
2021/11/13 01:53:07;;;;;;;12.93;1.30;;;;;;;19.33;46.55;99948.31;4421227;32;20438;-70
2021/11/13 01:55:36;;;;;;;8.70;1.30;;;;;;;19.70;46.12;99969.59;4419657;32;20068;-70
2021/11/13 01:58:03;;;;;;;9.90;1.10;;;;;;;18.96;47.34;99967.69;4420868;32;20068;-69
2021/11/13 02:03:05;;;;;;;10.80;1.45;;;;;;;19.83;46.35;99986.19;3977442;32;15142836;-70
2021/11/13 02:05:32;;;;;;;6.80;0.95;;;;;;;19.83;46.35;99986.19;4442025;32;20422;-70
2021/11/13 02:07:58;;;;;;;13.55;2.08;;;;;;;19.48;46.45;99991.63;4440425;32;20045;-70
2021/11/13 02:10:25;;;;;;;8.23;1.30;;;;;;;19.53;46.42;100002.28;4439902;32;20029;-71
2021/11/13 02:12:53;;;;;;;10.30;1.40;;;;;;;19.47;46.46;100004.34;4437946;32;20041;-71
2021/11/13 02:15:20;;;;;;;12.40;1.52;;;;;;;19.81;45.71;100011.62;4443266;32;20096;-70
2021/11/13 02:17:45;;;;;;;6.85;1.10;;;;;;;19.91;45.61;100017.88;4437521;32;20438;-71
2021/11/13 02:22:52;;;;;;;10.30;1.50;;;;;;;20.61;44.44;100039.06;3993699;32;15029263;-70
2021/11/13 02:25:22;;;;;;;8.63;1.00;;;;;;;20.61;44.44;100039.06;4448107;32;20143;-70
2021/11/13 02:27:48;;;;;;;9.77;1.08;;;;;;;20.17;44.87;100032.66;4444014;32;20029;-70
2021/11/13 02:30:15;;;;;;;6.68;1.02;;;;;;;20.23;44.93;100039.94;4447059;32;20073;-70
2021/11/13 02:32:41;;;;;;;5.22;1.20;;;;;;;20.54;44.09;100053.91;4447920;32;20021;-69
2021/11/13 02:35:10;;;;;;;8.38;1.00;;;;;;;20.12;44.95;100045.66;4425787;32;20104;-69
2021/11/13 02:37:36;;;;;;;10.55;1.08;;;;;;;20.27;44.93;100045.34;4445774;32;20036;-69
2021/11/13 02:40:06;;;;;;;6.50;0.90;;;;;;;20.33;44.55;100049.78;4447410;32;20030;-69
2021/11/13 02:42:34;;;;;;;8.73;1.08;;;;;;;20.33;44.75;100052.62;4446627;32;20064;-69
2021/11/13 02:45:01;;;;;;;10.20;1.10;;;;;;;20.27;44.64;100059.66;4446015;32;20056;-69
2021/11/13 02:47:27;;;;;;;5.62;1.02;;;;;;;20.54;44.20;100058.81;4448186;32;20106;-69
2021/11/13 02:49:54;;;;;;;5.47;0.88;;;;;;;20.33;44.59;100060.41;4432418;32;20077;-69
2021/11/13 02:52:20;;;;;;;8.60;1.40;;;;;;;20.54;44.26;100061.69;4449629;32;20073;-69
2021/11/13 02:54:48;;;;;;;6.72;1.00;;;;;;;20.93;43.89;100062.34;4445518;32;20110;-69
2021/11/13 02:57:15;;;;;;;5.97;1.00;;;;;;;20.79;43.77;100075.66;4450088;32;20108;-69
2021/11/13 03:02:20;;;;;;;8.88;0.98;;;;;;;21.47;42.74;100092.00;3984421;32;15022636;-70
2021/11/13 03:04:45;;;;;;;7.35;1.10;;;;;;;21.47;42.74;100092.00;4438926;32;20079;-70
2021/11/13 03:07:11;;;;;;;8.73;1.12;;;;;;;20.91;43.11;100091.47;4437969;32;20069;-70
2021/11/13 03:09:37;;;;;;;7.43;1.20;;;;;;;20.46;43.75;100086.41;4437053;32;20065;-70
2021/11/13 03:12:03;;;;;;;7.05;1.50;;;;;;;20.47;43.83;100097.31;4440593;32;20052;-70
2021/11/13 03:14:29;;;;;;;4.28;1.02;;;;;;;20.76;43.54;100104.50;4437001;32;20490;-70
2021/11/13 03:17:05;;;;;;;11.63;1.30;;;;;;;20.75;43.71;100109.47;4437491;32;20548;-70
2021/11/13 03:19:32;;;;;;;9.15;0.88;;;;;;;21.09;42.89;100125.25;4436713;32;20069;-70
2021/11/13 03:21:58;;;;;;;8.27;1.40;;;;;;;21.11;43.11;100128.34;4437251;32;20036;-70
2021/11/13 03:24:28;;;;;;;9.05;1.30;;;;;;;20.86;43.24;100132.28;4440275;32;20398;-70
2021/11/13 03:26:53;;;;;;;11.95;1.48;;;;;;;21.05;42.87;100133.31;4438435;32;20029;-70
2021/11/13 03:29:27;;;;;;;11.27;1.10;;;;;;;21.13;42.99;100134.31;4436536;32;20074;-70
2021/11/13 03:31:54;;;;;;;9.45;1.23;;;;;;;21.40;42.93;100133.44;4437585;32;20014;-71
2021/11/13 03:34:21;;;;;;;8.00;1.35;;;;;;;20.74;43.39;100136.47;4436795;32;20084;-71
2021/11/13 03:36:46;;;;;;;8.80;1.37;;;;;;;20.84;43.63;100140.66;4436063;32;20033;-71
2021/11/13 03:39:12;;;;;;;4.72;1.23;;;;;;;20.83;43.76;100141.94;4437245;32;20543;-71
2021/11/13 03:41:38;;;;;;;10.50;1.10;;;;;;;21.09;43.36;100141.63;4435171;32;20471;-70
2021/11/13 03:44:04;;;;;;;7.45;1.50;;;;;;;21.09;43.13;100147.34;4434784;32;20072;-70
2021/11/13 03:46:30;;;;;;;15.65;1.45;;;;;;;21.31;42.97;100150.91;4434507;32;20133;-70
2021/11/13 03:48:56;;;;;;;10.52;1.48;;;;;;;21.24;43.10;100157.19;4437596;32;20427;-70
2021/11/13 03:51:22;;;;;;;8.35;1.37;;;;;;;20.86;43.72;100163.00;4437501;32;20156;-70
2021/11/13 03:53:49;;;;;;;11.65;1.83;;;;;;;20.93;43.27;100166.06;4440267;32;20426;-70
2021/11/13 03:56:15;;;;;;;6.45;1.00;;;;;;;21.12;42.76;100160.59;4434792;32;20029;-70
2021/11/13 03:58:41;;;;;;;13.02;1.87;;;;;;;21.14;42.96;100175.94;4438978;32;20072;-70
2021/11/13 04:01:06;;;;;;;8.63;1.08;;;;;;;20.84;43.39;100185.63;4435947;32;20085;-70
2021/11/13 04:03:32;;;;;;;7.93;1.35;;;;;;;20.86;43.66;100192.34;4438281;32;20085;-70
2021/11/13 04:05:58;;;;;;;7.55;1.52;;;;;;;20.88;43.28;100189.75;4436117;32;20033;-70
2021/11/13 04:08:23;;;;;;;9.00;1.17;;;;;;;20.83;43.42;100195.50;4435948;32;20061;-70
2021/11/13 04:10:49;;;;;;;11.50;1.60;;;;;;;20.97;42.96;100198.09;4436368;32;20096;-70
2021/11/13 04:13:15;;;;;;;11.45;1.45;;;;;;;20.34;44.44;100184.88;4430975;32;20178;-70
2021/11/13 04:15:41;;;;;;;6.25;1.20;;;;;;;20.71;43.83;100194.72;4426046;32;20403;-70
2021/11/13 04:18:07;;;;;;;9.52;1.62;;;;;;;20.40;44.58;100194.22;4424853;32;20046;-70
2021/11/13 04:20:33;;;;;;;9.18;1.00;;;;;;;20.19;45.05;100213.69;4426362;32;20479;-70
2021/11/13 04:22:59;;;;;;;11.80;1.42;;;;;;;20.26;44.91;100221.75;4428248;32;20021;-70
2021/11/13 04:25:25;;;;;;;10.75;1.12;;;;;;;20.23;45.32;100216.28;4424235;32;20065;-70
2021/11/13 04:27:51;;;;;;;11.45;1.80;;;;;;;20.33;45.15;100224.09;4426410;32;20079;-70
2021/11/13 04:30:18;;;;;;;14.45;1.40;;;;;;;20.56;44.86;100228.50;4424201;32;20083;-70
2021/11/13 04:32:46;;;;;;;10.48;1.87;;;;;;;20.80;44.58;100228.00;4429587;32;20097;-70
2021/11/13 04:35:16;;;;;;;15.48;2.05;;;;;;;20.74;44.72;100244.37;4428246;32;20122;-70
2021/11/13 04:37:44;;;;;;;9.95;1.42;;;;;;;20.58;44.98;100239.44;4426969;32;20141;-70
2021/11/13 04:40:10;;;;;;;10.23;1.60;;;;;;;20.49;44.85;100240.47;4423668;32;20117;-70
2021/11/13 04:42:36;;;;;;;7.45;1.55;;;;;;;20.82;44.44;100248.25;4427759;32;20079;-70
2021/11/13 04:45:02;;;;;;;11.02;1.45;;;;;;;20.56;44.48;100256.34;4427603;32;20077;-70
2021/11/13 04:47:28;;;;;;;7.28;1.48;;;;;;;20.55;44.33;100257.63;4426938;32;20079;-70
2021/11/13 04:49:54;;;;;;;13.50;1.30;;;;;;;20.52;44.21;100255.81;4424077;32;20490;-70
2021/11/13 04:52:19;;;;;;;7.10;1.58;;;;;;;20.45;44.37;100262.81;4422230;32;20651;-70
2021/11/13 04:54:45;;;;;;;8.02;1.40;;;;;;;20.51;44.33;100265.69;4426543;32;20069;-70
2021/11/13 04:57:11;;;;;;;6.25;1.20;;;;;;;20.70;43.85;100275.31;4425474;32;20081;-70
2021/11/13 04:59:36;;;;;;;5.93;1.40;;;;;;;20.38;44.45;100274.00;4425747;32;20026;-70
2021/11/13 05:02:02;;;;;;;9.25;1.45;;;;;;;20.81;43.77;100284.69;4426917;32;20116;-70
2021/11/13 05:04:29;;;;;;;9.75;1.20;;;;;;;20.97;42.99;100289.66;4427520;32;20100;-70
2021/11/13 05:06:55;;;;;;;11.82;1.40;;;;;;;21.03;42.80;100293.28;4423857;32;20077;-70
2021/11/13 05:09:21;;;;;;;7.07;1.25;;;;;;;21.05;42.90;100302.09;4426364;32;20449;-70
2021/11/13 05:11:46;;;;;;;6.15;1.05;;;;;;;20.94;43.02;100313.56;4429199;32;20041;-70
2021/11/13 05:14:12;;;;;;;9.82;1.30;;;;;;;20.92;42.99;100306.75;4426185;32;20065;-70
2021/11/13 05:16:37;;;;;;;10.65;1.50;;;;;;;20.97;43.00;100323.19;4425708;32;20081;-70
2021/11/13 05:19:03;;;;;;;7.47;1.25;;;;;;;21.03;42.65;100321.91;4428041;32;20048;-70
2021/11/13 05:21:29;;;;;;;7.90;1.52;;;;;;;21.00;42.89;100325.00;4427101;32;20034;-70
2021/11/13 05:23:55;;;;;;;7.45;1.70;;;;;;;21.33;42.73;100324.97;4429829;32;20118;-70
2021/11/13 05:26:21;;;;;;;11.50;1.37;;;;;;;21.33;42.90;100327.84;4426322;32;20046;-70
2021/11/13 05:28:48;;;;;;;9.45;1.25;;;;;;;21.26;42.78;100334.88;4426244;32;20101;-70
2021/11/13 05:31:13;;;;;;;8.90;1.75;;;;;;;21.19;42.65;100331.75;4423601;32;20076;-70
2021/11/13 05:33:40;;;;;;;11.82;1.48;;;;;;;21.38;42.27;100338.50;4428363;32;20038;-70
2021/11/13 05:36:06;;;;;;;7.82;1.35;;;;;;;21.56;42.27;100347.31;4426516;32;20073;-70
2021/11/13 05:38:32;;;;;;;8.55;1.52;;;;;;;21.29;42.51;100345.28;4427132;32;20399;-70
2021/11/13 05:40:58;;;;;;;8.18;1.60;;;;;;;21.18;42.57;100350.22;4426991;32;20076;-70
2021/11/13 05:43:24;;;;;;;12.88;1.40;;;;;;;21.33;42.37;100360.09;4427231;32;20133;-70
2021/11/13 05:45:49;;;;;;;9.55;1.33;;;;;;;21.23;42.46;100355.19;4423386;32;20068;-70
2021/11/13 05:48:16;;;;;;;6.20;1.33;;;;;;;20.92;42.89;100372.56;4425331;32;20069;-70
2021/11/13 05:50:42;;;;;;;11.25;1.30;;;;;;;21.27;42.49;100376.50;4424235;32;20448;-70
2021/11/13 05:53:08;;;;;;;12.27;1.48;;;;;;;21.19;42.51;100384.06;4425694;32;20117;-70
2021/11/13 05:55:34;;;;;;;7.72;1.00;;;;;;;21.08;42.49;100384.03;4425899;32;20432;-70
2021/11/13 05:58:00;;;;;;;9.77;1.25;;;;;;;20.94;42.61;100381.41;4426005;32;20112;-70
2021/11/13 06:00:27;;;;;;;9.05;1.92;;;;;;;20.99;42.67;100372.84;4424730;32;20160;-70
2021/11/13 06:02:53;;;;;;;8.25;1.20;;;;;;;21.13;42.59;100376.75;4427670;32;20034;-70
2021/11/13 06:05:19;;;;;;;9.40;1.20;;;;;;;21.16;42.48;100378.59;4422669;32;20663;-70
2021/11/13 06:07:45;;;;;;;10.32;1.23;;;;;;;20.92;42.44;100372.56;4427265;32;20066;-70
2021/11/13 06:10:13;;;;;;;6.28;1.95;;;;;;;20.81;42.99;100369.69;4426811;32;20093;-70
2021/11/13 06:12:39;;;;;;;9.05;1.40;;;;;;;20.59;43.29;100378.25;4424766;32;20069;-70
2021/11/13 06:15:06;;;;;;;8.38;1.00;;;;;;;21.07;42.41;100390.28;4425253;32;20158;-70
2021/11/13 06:17:32;;;;;;;6.00;0.98;;;;;;;21.36;42.10;100396.25;4424686;32;20390;-70
2021/11/13 06:19:58;;;;;;;9.13;1.20;;;;;;;21.34;42.00;100406.69;4425212;32;20101;-70
2021/11/13 06:22:24;;;;;;;4.87;1.58;;;;;;;21.29;41.93;100416.03;4423921;32;20018;-70
2021/11/13 06:24:49;;;;;;;6.95;1.30;;;;;;;21.53;41.60;100410.56;4426419;32;20565;-70
2021/11/13 06:27:16;;;;;;;7.53;1.08;;;;;;;21.64;41.42;100425.66;4424095;32;20130;-70
2021/11/13 06:29:42;;;;;;;3.47;1.05;;;;;;;21.47;41.73;100421.25;4425185;32;20086;-70
2021/11/13 06:32:09;;;;;;;9.35;1.00;;;;;;;21.60;41.39;100436.59;4424765;32;20399;-70
2021/11/13 06:34:35;;;;;;;6.87;1.00;;;;;;;21.64;41.52;100428.50;4423739;32;20391;-70
2021/11/13 06:37:01;;;;;;;7.93;1.23;;;;;;;21.50;41.27;100434.53;4425039;32;20026;-70
2021/11/13 06:39:27;;;;;;;7.78;1.27;;;;;;;21.34;41.62;100438.97;4427523;32;20198;-70
2021/11/13 06:41:53;;;;;;;10.55;1.02;;;;;;;21.50;41.20;100434.53;4426137;32;20055;-70
2021/11/13 06:44:19;;;;;;;5.60;1.05;;;;;;;21.17;41.68;100448.84;4426912;32;20190;-70
2021/11/13 06:46:45;;;;;;;7.80;1.70;;;;;;;21.09;41.77;100454.28;4426401;32;20045;-70
2021/11/13 06:49:11;;;;;;;13.93;1.58;;;;;;;21.02;42.05;100446.19;4425524;32;20164;-70
2021/11/13 06:51:37;;;;;;;9.30;1.00;;;;;;;21.11;41.79;100448.81;4424605;32;20069;-70
2021/11/13 06:54:03;;;;;;;5.12;1.05;;;;;;;20.74;42.63;100458.88;4426311;32;20022;-70
2021/11/13 06:56:28;;;;;;;7.60;1.27;;;;;;;21.02;41.97;100468.31;4426556;32;20116;-70
2021/11/13 06:58:54;;;;;;;6.28;1.05;;;;;;;21.22;41.96;100480.31;4425553;32;20151;-70
2021/11/13 07:01:19;;;;;;;12.30;1.75;;;;;;;21.32;41.68;100487.34;4424376;32;20805;-70
2021/11/13 07:03:45;;;;;;;6.85;1.33;;;;;;;21.53;41.57;100500.12;4424733;32;20041;-70
2021/11/13 07:06:11;;;;;;;7.85;1.02;;;;;;;21.60;41.09;100502.47;4428683;32;20069;-70
2021/11/13 07:08:37;;;;;;;9.23;1.52;;;;;;;21.61;40.82;100503.25;4420661;32;20101;-70
2021/11/13 07:11:03;;;;;;;8.38;1.20;;;;;;;21.75;40.77;100504.31;4425216;32;20065;-70
2021/11/13 07:13:29;;;;;;;11.70;1.48;;;;;;;21.66;40.98;100500.38;4424851;32;20081;-70
2021/11/13 07:15:54;;;;;;;7.95;1.27;;;;;;;21.45;41.26;100504.78;4426349;32;20062;-70
2021/11/13 07:18:20;;;;;;;8.02;1.35;;;;;;;21.64;40.77;100502.97;4424243;32;20092;-70
2021/11/13 07:20:58;;;;;;;6.18;1.17;;;;;;;21.48;40.90;100503.00;4423728;32;20070;-70
2021/11/13 07:23:25;;;;;;;7.68;1.42;;;;;;;21.67;40.82;100510.53;4423997;32;20102;-70
2021/11/13 07:25:51;;;;;;;6.47;1.12;;;;;;;21.52;40.90;100515.75;4426656;32;20025;-70
2021/11/13 07:28:20;;;;;;;8.90;1.55;;;;;;;21.31;41.25;100516.50;4424931;32;20074;-70
2021/11/13 07:30:48;;;;;;;8.05;1.70;;;;;;;21.10;41.35;100521.66;4425154;32;20112;-70
2021/11/13 07:33:14;;;;;;;4.93;1.42;;;;;;;21.38;41.22;100525.34;4424524;32;20115;-70
2021/11/13 07:35:42;;;;;;;6.40;1.10;;;;;;;21.46;40.94;100525.63;4425226;32;20424;-70
2021/11/13 07:38:10;;;;;;;4.53;1.02;;;;;;;20.89;41.85;100542.37;4424641;32;20037;-70
2021/11/13 07:40:37;;;;;;;4.78;1.10;;;;;;;21.40;41.34;100556.34;4426926;32;20409;-70
2021/11/13 07:43:03;;;;;;;10.63;1.67;;;;;;;21.35;41.25;100554.22;4422649;32;20074;-70
2021/11/13 07:45:29;;;;;;;11.12;1.75;;;;;;;20.87;41.73;100557.19;4425817;32;20399;-70
2021/11/13 07:47:55;;;;;;;9.35;1.75;;;;;;;21.09;41.38;100570.81;4426915;32;20121;-70
2021/11/13 07:50:22;;;;;;;8.05;1.05;;;;;;;21.25;40.86;100576.59;4427122;32;20106;-70
2021/11/13 07:52:48;;;;;;;4.65;1.00;;;;;;;20.92;41.45;100579.31;4427304;32;20030;-70
2021/11/13 07:55:15;;;;;;;9.48;1.25;;;;;;;21.20;40.93;100582.31;4427121;32;20334;-70
2021/11/13 07:57:43;;;;;;;7.07;1.27;;;;;;;21.20;41.22;100573.72;4428902;32;20601;-70
2021/11/13 08:00:12;;;;;;;6.82;1.15;;;;;;;21.51;40.80;100585.00;4425556;32;20387;-70
2021/11/13 08:02:38;;;;;;;7.05;0.90;;;;;;;21.20;40.94;100596.63;4426273;32;20459;-70
2021/11/13 08:05:04;;;;;;;8.80;1.33;;;;;;;21.28;40.70;100586.22;4428218;32;20105;-70
2021/11/13 08:07:30;;;;;;;7.22;1.05;;;;;;;21.45;40.24;100590.69;4427495;32;20096;-70
2021/11/13 08:09:56;;;;;;;10.10;1.67;;;;;;;21.07;40.46;100599.94;4431468;32;20033;-70
2021/11/13 08:12:22;;;;;;;5.93;0.75;;;;;;;21.61;39.86;100597.75;4426059;32;20076;-70
2021/11/13 08:14:48;;;;;;;4.90;0.98;;;;;;;21.42;39.97;100600.31;4426373;32;20479;-70
2021/11/13 08:17:14;;;;;;;9.02;1.17;;;;;;;21.59;39.46;100603.22;4426445;32;20402;-70
2021/11/13 08:19:39;;;;;;;4.75;0.80;;;;;;;21.66;39.33;100606.34;4427989;32;20073;-70
2021/11/13 08:22:05;;;;;;;5.72;0.93;;;;;;;21.59;39.26;100609.72;4427282;32;20062;-70
2021/11/13 08:24:32;;;;;;;6.80;1.00;;;;;;;21.68;39.42;100618.09;4429169;32;20037;-70
2021/11/13 08:26:57;;;;;;;7.68;0.95;;;;;;;21.19;39.51;100624.47;4428251;32;20037;-70
2021/11/13 08:29:23;;;;;;;5.20;1.00;;;;;;;21.60;38.82;100616.25;4425966;32;20328;-70
2021/11/13 08:31:48;;;;;;;5.53;1.00;;;;;;;21.61;38.91;100617.81;4425487;32;20050;-70
2021/11/13 08:34:15;;;;;;;6.62;0.90;;;;;;;21.33;39.02;100619.81;4429848;32;20156;-70
2021/11/13 08:36:40;;;;;;;3.80;1.33;;;;;;;21.38;39.17;100628.41;4426958;32;20053;-70
2021/11/13 08:39:07;;;;;;;6.32;1.08;;;;;;;21.74;38.69;100626.72;4427049;32;20081;-70
2021/11/13 08:41:33;;;;;;;6.00;1.27;;;;;;;22.25;38.01;100631.16;4430361;32;20340;-70
2021/11/13 08:44:00;;;;;;;3.50;1.05;;;;;;;21.99;38.20;100640.00;4424710;32;20088;-70
2021/11/13 08:46:25;;;;;;;3.95;1.20;;;;;;;22.14;37.93;100639.75;4425834;32;20498;-70
2021/11/13 08:48:51;;;;;;;3.20;0.65;;;;;;;22.26;37.22;100641.31;4420441;32;20378;-70
2021/11/13 08:51:17;;;;;;;8.43;1.12;;;;;;;22.35;36.69;100641.84;4426561;32;20347;-70
2021/11/13 08:53:48;;;;;;;4.03;0.80;;;;;;;22.51;36.73;100648.88;4426715;32;20103;-70
2021/11/13 08:56:14;;;;;;;5.22;0.80;;;;;;;22.06;37.10;100648.09;4425844;32;20021;-70
2021/11/13 08:58:39;;;;;;;7.75;1.30;;;;;;;21.91;37.75;100644.72;4426757;32;20131;-70
2021/11/13 09:01:06;;;;;;;7.00;1.10;;;;;;;21.76;37.90;100661.34;4422232;32;20069;-70
2021/11/13 09:03:37;;;;;;;7.53;1.25;;;;;;;22.33;37.27;100658.03;4424492;32;20077;-70
2021/11/13 09:06:08;;;;;;;5.72;1.40;;;;;;;22.02;37.98;100669.72;4426432;32;20037;-70
2021/11/13 09:08:35;;;;;;;9.48;1.00;;;;;;;22.41;37.23;100681.97;4427299;32;20451;-70
2021/11/13 09:11:04;;;;;;;5.25;1.12;;;;;;;22.57;37.35;100676.28;4428671;32;20075;-70
2021/11/13 09:13:30;;;;;;;3.58;1.23;;;;;;;22.66;37.45;100681.72;4426737;32;20017;-70
2021/11/13 09:15:58;;;;;;;4.97;1.00;;;;;;;22.52;37.53;100687.75;4426116;32;20037;-70
2021/11/13 09:18:24;;;;;;;5.05;1.15;;;;;;;22.75;37.27;100678.59;4428042;32;20561;-70
2021/11/13 09:20:50;;;;;;;6.07;1.30;;;;;;;22.55;36.98;100686.72;4424972;32;20038;-70
2021/11/13 09:23:15;;;;;;;5.18;1.17;;;;;;;22.87;36.69;100683.00;4428952;32;20399;-70
2021/11/13 09:25:44;;;;;;;6.20;1.00;;;;;;;22.87;36.76;100694.47;4429279;32;20045;-70
2021/11/13 09:28:11;;;;;;;4.95;1.08;;;;;;;23.02;36.46;100697.84;4425494;32;20057;-70
2021/11/13 09:30:37;;;;;;;4.75;1.00;;;;;;;23.17;36.51;100706.91;4426370;32;20475;-70
2021/11/13 09:33:04;;;;;;;5.25;1.30;;;;;;;23.08;36.50;100700.69;4427461;32;20084;-70
2021/11/13 09:35:30;;;;;;;6.90;1.35;;;;;;;23.44;36.22;100708.19;4425336;32;20064;-70
2021/11/13 09:37:57;;;;;;;10.02;1.70;;;;;;;23.73;35.67;100727.63;4423892;32;20071;-70
2021/11/13 09:40:25;;;;;;;6.53;0.95;;;;;;;23.68;35.59;100719.78;4426725;32;20219;-70
2021/11/13 09:42:54;;;;;;;6.15;1.35;;;;;;;23.70;35.69;100717.19;4426849;32;20374;-70
2021/11/13 09:45:21;;;;;;;10.73;1.65;;;;;;;23.60;35.57;100721.69;4424468;32;20060;-70
2021/11/13 09:47:50;;;;;;;5.45;1.48;;;;;;;23.00;36.55;100732.03;4427466;32;20422;-70
2021/11/13 09:50:17;;;;;;;7.72;1.20;;;;;;;23.71;35.89;100730.22;4419680;32;20078;-70
2021/11/13 09:52:43;;;;;;;6.10;1.02;;;;;;;23.44;35.78;100725.41;4422848;32;20421;-70
2021/11/13 09:55:11;;;;;;;5.05;1.05;;;;;;;23.87;35.42;100734.34;4425986;32;20055;-70
2021/11/13 09:57:38;;;;;;;8.13;1.42;;;;;;;24.38;35.05;100740.03;4428121;32;20018;-70
2021/11/13 10:00:08;;;;;;;3.42;1.08;;;;;;;24.41;34.73;100738.97;4425860;32;20364;-70
2021/11/13 10:02:33;;;;;;;5.37;1.20;;;;;;;24.47;34.10;100739.72;4423507;32;20125;-70
2021/11/13 10:04:59;;;;;;;6.45;1.58;;;;;;;24.24;34.51;100743.28;4423594;32;20082;-71
2021/11/13 10:07:25;;;;;;;3.45;0.88;;;;;;;24.03;34.17;100742.13;4423089;32;20092;-70
2021/11/13 10:09:51;;;;;;;8.98;1.23;;;;;;;23.57;35.15;100739.19;4425638;32;20042;-71
2021/11/13 10:12:16;;;;;;;8.20;1.20;;;;;;;24.06;34.99;100743.91;4423439;32;20034;-70
2021/11/13 10:14:43;;;;;;;4.95;1.05;;;;;;;23.84;34.65;100738.28;4425901;32;20142;-70
2021/11/13 10:17:19;;;;;;;5.22;1.23;;;;;;;24.35;34.15;100748.94;4423720;32;20437;-70
2021/11/13 10:19:46;;;;;;;5.53;1.27;;;;;;;25.09;32.86;100744.38;4426465;32;20146;-70
2021/11/13 10:22:11;;;;;;;6.97;0.98;;;;;;;25.30;32.72;100748.34;4424751;32;20108;-72
2021/11/13 10:24:46;;;;;;;3.55;1.20;;;;;;;25.73;32.23;100753.34;4425034;32;20033;-70
2021/11/13 10:27:12;;;;;;;;;;;;;;;26.15;31.63;100758.31;4425484;32;20529;-70
2021/11/13 10:29:38;;;;;;;4.03;0.80;;;;;;;27.35;29.72;100759.72;4424204;32;19999;-70
2021/11/13 10:32:09;;;;;;;2.60;0.80;;;;;;;27.09;30.27;100748.91;4426249;32;20109;-70
2021/11/13 10:34:40;;;;;;;3.70;0.82;;;;;;;27.46;28.89;100747.94;4423712;32;20582;-70
2021/11/13 10:37:09;;;;;;;6.78;0.90;;;;;;;26.91;29.69;100761.31;4423852;32;20098;-70
2021/11/13 10:39:39;;;;;;;3.75;1.48;;;;;;;27.18;29.08;100762.91;4424647;32;20543;-70
2021/11/13 10:44:49;;;;;;;4.45;1.15;;;;;;;28.09;27.87;100765.81;3995013;31;15016523;-71
2021/11/13 10:49:52;;;;;;;5.20;1.15;;;;;;;26.93;29.04;100773.88;4006182;31;15023711;-71
2021/11/13 10:52:20;;;;;;;5.57;1.00;;;;;;;26.93;29.04;100773.88;4466460;32;20046;-70
2021/11/13 10:54:49;;;;;;;4.60;0.95;;;;;;;27.23;28.59;100764.91;4464603;32;20106;-71
2021/11/13 10:57:25;;;;;;;5.68;1.33;;;;;;;27.23;28.29;100776.47;4463489;32;20461;-71
2021/11/13 10:59:50;;;;;;;3.10;1.00;;;;;;;27.64;27.89;100767.28;4468137;32;20048;-72
2021/11/13 11:02:18;;;;;;;5.45;1.08;;;;;;;27.01;28.15;100776.88;4464191;32;20055;-70
2021/11/13 11:04:45;;;;;;;4.53;1.00;;;;;;;27.21;27.92;100765.47;4467420;32;20048;-70
2021/11/13 11:07:15;;;;;;;3.42;0.80;;;;;;;27.72;27.44;100776.84;4467314;32;20076;-70
2021/11/13 11:09:43;;;;;;;5.68;0.80;;;;;;;27.11;27.93;100775.91;4466754;32;20108;-70
2021/11/13 11:14:51;;;;;;;3.55;1.05;;;;;;;27.29;28.27;100780.06;3983238;32;15021732;-71
2021/11/13 11:17:20;;;;;;;3.12;0.90;;;;;;;27.29;28.27;100780.06;4438054;32;20077;-71
2021/11/13 11:19:50;;;;;;;6.85;1.02;;;;;;;27.25;28.21;100791.19;4439100;32;20084;-71
2021/11/13 11:22:20;;;;;;;4.87;1.00;;;;;;;27.97;27.45;100786.84;4434787;32;20047;-71
2021/11/13 11:30:09;;;;;;;5.12;1.55;;;;;;;28.55;26.67;100787.38;3985333;32;15021892;-71
2021/11/13 11:32:46;;;;;;;3.33;0.77;;;;;;;28.55;26.67;100787.38;4435702;32;20100;-71
2021/11/13 11:35:20;;;;;;;5.20;1.33;;;;;;;28.37;26.56;100791.97;4435981;32;20407;-70
2021/11/13 11:37:49;;;;;;;3.47;1.03;;;;;;;28.15;27.03;100792.50;4436605;32;20021;-71
2021/11/13 11:42:59;;;;;;;4.45;1.00;;;;;;;27.30;28.39;100798.97;3984734;32;15025258;-71
2021/11/13 11:45:27;;;;;;;4.30;1.27;;;;;;;27.30;28.39;100798.97;4434247;32;20037;-70